createdAt,value
2023-05-13T00:00:05.439Z,100.00
2023-05-13T00:02:38.665Z,100.00
2023-05-13T00:05:11.003Z,100.00
2023-05-13T00:07:43.351Z,100.00
2023-05-13T00:10:16.208Z,100.00
2023-05-13T00:12:49.165Z,100.00
2023-05-13T00:15:21.674Z,100.00
2023-05-13T00:17:54.019Z,100.00
2023-05-13T00:20:26.354Z,100.00
2023-05-13T00:22:58.657Z,100.00
2023-05-13T00:25:30.931Z,100.00
2023-05-13T00:28:04.191Z,100.00
2023-05-13T00:30:36.499Z,100.00
2023-05-13T00:33:08.940Z,100.00
2023-05-13T00:35:41.503Z,100.00
2023-05-13T00:38:15.101Z,100.00
2023-05-13T00:40:48.289Z,100.00
2023-05-13T00:43:21.428Z,100.00
2023-05-13T00:45:53.841Z,100.00
2023-05-13T00:48:26.807Z,100.00
2023-05-13T00:50:59.487Z,100.00
2023-05-13T00:53:32.906Z,100.00
2023-05-13T00:56:05.728Z,100.00
2023-05-13T00:58:38.688Z,100.00
2023-05-13T01:01:17.258Z,100.00
2023-05-13T01:03:55.694Z,100.00
2023-05-13T01:06:37.061Z,100.00
2023-05-13T01:09:20.912Z,100.00
2023-05-13T01:11:55.436Z,100.00
2023-05-13T01:14:32.949Z,100.00
2023-05-13T01:17:14.476Z,100.00
2023-05-13T01:19:52.114Z,100.00
2023-05-13T01:22:25.260Z,100.00
2023-05-13T01:24:57.673Z,100.00
2023-05-13T01:27:30.227Z,100.00
2023-05-13T01:30:03.223Z,100.00
2023-05-13T01:32:38.744Z,100.00
2023-05-13T01:35:12.173Z,100.00
2023-05-13T01:37:50.545Z,100.00
2023-05-13T01:40:32.295Z,100.00
2023-05-13T01:43:11.854Z,100.00
2023-05-13T01:45:44.458Z,100.00
2023-05-13T01:48:18.366Z,100.00
2023-05-13T01:50:53.215Z,100.00
2023-05-13T01:53:26.289Z,100.00
2023-05-13T01:55:58.950Z,100.00
2023-05-13T01:58:31.679Z,100.00
2023-05-13T02:01:04.073Z,100.00
2023-05-13T02:03:37.297Z,100.00
2023-05-13T02:06:10.044Z,100.00
2023-05-13T02:08:43.080Z,100.00
2023-05-13T02:11:15.400Z,100.00
2023-05-13T02:13:47.746Z,100.00
2023-05-13T02:16:20.364Z,100.00
2023-05-13T02:18:52.776Z,100.00
2023-05-13T02:21:33.149Z,100.00
2023-05-13T02:24:06.794Z,100.00
2023-05-13T02:26:40.900Z,100.00
2023-05-13T02:29:13.804Z,100.00
2023-05-13T02:31:46.628Z,100.00
2023-05-13T02:34:19.360Z,100.00
2023-05-13T02:36:51.963Z,100.00
2023-05-13T02:39:24.985Z,100.00
2023-05-13T02:41:59.134Z,100.00
2023-05-13T02:44:36.160Z,100.00
2023-05-13T02:47:08.544Z,100.00
2023-05-13T02:49:40.879Z,100.00
2023-05-13T02:52:13.224Z,100.00
2023-05-13T02:54:46.355Z,100.00
2023-05-13T02:57:18.690Z,100.00
2023-05-13T02:59:51.486Z,100.00
2023-05-13T03:02:23.963Z,100.00
2023-05-13T03:04:56.603Z,100.00
2023-05-13T03:07:29.003Z,100.00
2023-05-13T03:10:01.952Z,100.00
2023-05-13T03:12:34.571Z,100.00
2023-05-13T03:15:08.018Z,100.00
2023-05-13T03:17:41.327Z,100.00
2023-05-13T03:20:13.723Z,100.00
2023-05-13T03:22:46.040Z,100.00
2023-05-13T03:25:19.201Z,100.00
2023-05-13T03:27:56.482Z,100.00
2023-05-13T03:30:31.468Z,100.00
2023-05-13T03:33:11.029Z,100.00
2023-05-13T03:35:43.373Z,100.00
2023-05-13T03:38:15.755Z,100.00
2023-05-13T03:40:52.226Z,100.00
2023-05-13T03:43:24.644Z,100.00
2023-05-13T03:46:01.983Z,100.00
2023-05-13T03:48:34.399Z,100.00
2023-05-13T03:51:07.918Z,100.00
2023-05-13T03:53:40.283Z,100.00
2023-05-13T03:56:14.032Z,100.00
2023-05-13T03:58:46.507Z,100.00
2023-05-13T04:01:18.835Z,100.00
2023-05-13T04:03:51.650Z,100.00
2023-05-13T04:06:23.982Z,100.00
2023-05-13T04:08:56.279Z,100.00
2023-05-13T04:11:29.218Z,100.00
2023-05-13T04:14:01.980Z,100.00
2023-05-13T04:16:34.344Z,100.00
2023-05-13T04:19:06.681Z,100.00
2023-05-13T04:21:39.059Z,100.00
2023-05-13T04:24:11.345Z,100.00
2023-05-13T04:26:44.331Z,100.00
2023-05-13T04:29:17.357Z,100.00
2023-05-13T04:31:50.013Z,100.00
2023-05-13T04:34:22.457Z,100.00
2023-05-13T04:36:54.760Z,100.00
2023-05-13T04:39:27.045Z,100.00
2023-05-13T04:42:00.820Z,100.00
2023-05-13T04:44:34.314Z,100.00
2023-05-13T04:47:07.074Z,100.00
2023-05-13T04:49:39.580Z,100.00
2023-05-13T04:52:12.485Z,100.00
2023-05-13T04:54:45.006Z,100.00
2023-05-13T04:57:17.991Z,100.00
2023-05-13T04:59:50.273Z,100.00
2023-05-13T05:02:22.590Z,100.00
2023-05-13T05:04:54.918Z,100.00
2023-05-13T05:07:27.283Z,100.00
2023-05-13T05:10:01.312Z,100.00
2023-05-13T05:12:37.444Z,100.00
2023-05-13T05:15:14.840Z,100.00
2023-05-13T05:17:48.895Z,100.00
2023-05-13T05:20:23.749Z,100.00
2023-05-13T05:22:56.661Z,100.00
2023-05-13T05:25:31.342Z,100.00
2023-05-13T05:28:04.707Z,100.00
2023-05-13T05:30:38.970Z,100.00
2023-05-13T05:33:15.779Z,100.00
2023-05-13T05:35:48.958Z,100.00
2023-05-13T05:38:24.588Z,100.00
2023-05-13T05:40:58.987Z,100.00
2023-05-13T05:43:32.609Z,100.00
2023-05-13T05:46:05.407Z,100.00
2023-05-13T05:48:38.053Z,100.00
2023-05-13T05:51:10.431Z,100.00
2023-05-13T05:53:46.095Z,100.00
2023-05-13T05:56:21.052Z,100.00
2023-05-13T05:58:54.038Z,100.00
2023-05-13T06:01:27.390Z,100.00
2023-05-13T06:03:59.925Z,100.00
2023-05-13T06:06:33.090Z,100.00
2023-05-13T06:09:05.882Z,100.00
2023-05-13T06:11:39.241Z,100.00
2023-05-13T06:14:12.293Z,100.00
2023-05-13T06:16:44.617Z,100.00
2023-05-13T06:19:17.150Z,100.00
2023-05-13T06:21:49.601Z,100.00
2023-05-13T06:24:21.970Z,100.00
2023-05-13T06:26:54.360Z,100.00
2023-05-13T06:29:30.086Z,100.00
2023-05-13T06:32:02.442Z,100.00
2023-05-13T06:34:34.916Z,100.00
2023-05-13T06:37:07.305Z,100.00
2023-05-13T06:39:39.816Z,100.00
2023-05-13T06:42:14.287Z,100.00
2023-05-13T06:44:55.279Z,100.00
2023-05-13T06:47:33.073Z,100.00
2023-05-13T06:50:06.429Z,100.00
2023-05-13T06:52:41.268Z,100.00
2023-05-13T06:55:18.205Z,100.00
2023-05-13T06:57:50.833Z,100.00
2023-05-13T07:00:26.037Z,100.00
2023-05-13T07:02:58.456Z,100.00
2023-05-13T07:05:30.988Z,100.00
2023-05-13T07:08:06.058Z,100.00
2023-05-13T07:10:38.387Z,100.00
2023-05-13T07:13:10.941Z,100.00
2023-05-13T07:15:45.057Z,100.00
2023-05-13T07:18:20.068Z,100.00
2023-05-13T07:20:52.400Z,100.00
2023-05-13T07:23:31.859Z,100.00
2023-05-13T07:26:04.513Z,100.00
2023-05-13T07:28:36.892Z,100.00
2023-05-13T07:31:10.046Z,100.00
2023-05-13T07:33:45.009Z,100.00
2023-05-13T07:36:20.148Z,100.00
2023-05-13T07:38:52.875Z,100.00
2023-05-13T07:41:26.929Z,100.00
2023-05-13T07:43:59.259Z,100.00
2023-05-13T07:46:32.348Z,100.00
2023-05-13T07:49:07.930Z,100.00
2023-05-13T07:51:40.598Z,100.00
2023-05-13T07:54:13.020Z,100.00
2023-05-13T07:56:47.196Z,100.00
2023-05-13T07:59:19.560Z,100.00
2023-05-13T08:01:54.942Z,100.00
2023-05-13T08:04:27.635Z,100.00
2023-05-13T08:07:01.450Z,100.00
2023-05-13T08:09:36.361Z,100.00
2023-05-13T08:12:08.880Z,100.00
2023-05-13T08:14:41.245Z,100.00
2023-05-13T08:17:14.260Z,100.00
2023-05-13T08:19:46.587Z,100.00
2023-05-13T08:22:18.977Z,100.00
2023-05-13T08:24:51.290Z,98.57
2023-05-13T08:27:23.597Z,100.00
2023-05-13T08:29:55.935Z,100.00
2023-05-13T08:32:29.018Z,99.54
2023-05-13T08:35:01.593Z,99.77
2023-05-13T08:37:33.946Z,100.00
2023-05-13T08:40:07.540Z,99.28
2023-05-13T08:42:42.496Z,96.19
2023-05-13T08:45:15.527Z,99.48
2023-05-13T08:47:51.787Z,94.08
2023-05-13T08:50:25.280Z,94.25
2023-05-13T08:52:58.494Z,95.28
2023-05-13T08:55:30.891Z,88.63
2023-05-13T08:58:05.966Z,88.18
2023-05-13T09:00:39.234Z,86.12
2023-05-13T09:03:13.014Z,85.12
2023-05-13T09:05:45.802Z,83.50
2023-05-13T09:08:18.124Z,80.78
2023-05-13T09:10:53.284Z,81.57
2023-05-13T09:13:25.582Z,79.59
2023-05-13T09:15:58.036Z,77.54
2023-05-13T09:18:31.412Z,80.66
2023-05-13T09:21:21.737Z,76.81
2023-05-13T09:24:06.492Z,77.24
2023-05-13T09:26:41.679Z,75.52
2023-05-13T09:29:22.652Z,74.52
2023-05-13T09:31:57.340Z,77.93
2023-05-13T09:34:34.868Z,73.33
2023-05-13T09:37:08.571Z,72.99
2023-05-13T09:39:43.326Z,74.76
2023-05-13T09:42:16.296Z,72.08
2023-05-13T09:44:57.613Z,71.20
2023-05-13T09:47:30.065Z,70.04
2023-05-13T09:50:07.294Z,70.11
2023-05-13T09:52:39.665Z,69.83
2023-05-13T09:55:12.033Z,69.41
2023-05-13T09:57:46.114Z,71.93
2023-05-13T10:00:32.028Z,61.50
2023-05-13T10:03:05.431Z,64.69
2023-05-13T10:05:39.242Z,62.75
2023-05-13T10:08:13.002Z,59.78
2023-05-13T10:10:47.752Z,61.83
2023-05-13T10:13:23.615Z,63.92
2023-05-13T10:16:14.285Z,65.25
2023-05-13T10:18:47.652Z,61.92
2023-05-13T10:21:21.235Z,59.04
2023-05-13T10:23:54.103Z,57.03
2023-05-13T10:26:26.798Z,55.68
2023-05-13T10:28:59.663Z,52.97
2023-05-13T10:31:32.310Z,54.25
2023-05-13T10:34:04.731Z,55.23
2023-05-13T10:36:52.982Z,50.14
2023-05-13T10:39:52.452Z,54.21
2023-05-13T10:42:37.504Z,55.23
2023-05-13T10:45:10.208Z,54.21
2023-05-13T10:47:42.701Z,50.18
2023-05-13T10:50:24.594Z,51.45
2023-05-13T10:52:58.236Z,48.83
2023-05-13T10:55:30.475Z,47.87
2023-05-13T10:58:11.263Z,49.18
2023-05-13T11:00:46.579Z,52.82
2023-05-13T11:03:29.508Z,47.13
2023-05-13T11:06:15.230Z,46.56
2023-05-13T11:08:55.030Z,49.76
2023-05-13T11:11:32.724Z,47.07
2023-05-13T11:14:15.001Z,47.56
2023-05-13T11:16:51.809Z,47.98
2023-05-13T11:19:27.115Z,47.76
2023-05-13T11:22:08.098Z,43.63
2023-05-13T11:25:03.325Z,43.97
2023-05-13T11:27:39.350Z,44.72
2023-05-13T11:30:22.502Z,42.32
2023-05-13T11:32:56.802Z,42.22
2023-05-13T11:35:30.984Z,38.04
2023-05-13T11:38:05.790Z,37.86
2023-05-13T11:40:39.666Z,42.54
2023-05-13T11:43:35.143Z,40.16
2023-05-13T11:46:07.754Z,40.26
2023-05-13T11:48:40.194Z,41.09
2023-05-13T11:51:12.616Z,39.65
2023-05-13T11:53:45.034Z,39.44
2023-05-13T11:56:26.021Z,40.05
2023-05-13T11:59:14.019Z,39.53
2023-05-13T12:01:46.529Z,39.92
2023-05-13T12:04:18.888Z,38.00
2023-05-13T12:06:53.649Z,40.36
2023-05-13T12:09:26.106Z,40.01
2023-05-13T12:11:59.265Z,41.46
2023-05-13T12:14:32.614Z,38.81
2023-05-13T12:17:05.194Z,39.26
2023-05-13T12:19:37.517Z,39.64
2023-05-13T12:22:12.900Z,39.25
2023-05-13T12:24:50.914Z,40.35
2023-05-13T12:27:23.934Z,39.05
2023-05-13T12:29:59.018Z,45.08
2023-05-13T12:32:31.396Z,41.93
2023-05-13T12:35:12.858Z,39.00
2023-05-13T12:37:45.172Z,38.95
2023-05-13T12:40:17.869Z,37.70
2023-05-13T12:42:57.286Z,37.40
2023-05-13T12:45:31.015Z,36.88
2023-05-13T12:48:03.871Z,38.54
2023-05-13T12:50:36.976Z,37.82
2023-05-13T12:53:09.289Z,38.76
2023-05-13T12:55:44.620Z,37.06
2023-05-13T12:58:17.661Z,38.26
2023-05-13T13:00:52.721Z,38.38
2023-05-13T13:03:31.152Z,41.22
2023-05-13T13:06:04.088Z,39.91
2023-05-13T13:08:36.864Z,40.04
2023-05-13T13:11:09.721Z,38.90
2023-05-13T13:13:42.668Z,41.07
2023-05-13T13:16:15.168Z,40.67
2023-05-13T13:18:53.086Z,41.89
2023-05-13T13:21:26.477Z,40.83
2023-05-13T13:23:58.769Z,41.17
2023-05-13T13:26:31.147Z,41.46
2023-05-13T13:29:04.103Z,41.93
2023-05-13T13:31:36.453Z,42.08
2023-05-13T13:34:11.415Z,41.38
2023-05-13T13:36:43.811Z,38.83
2023-05-13T13:39:16.138Z,41.25
2023-05-13T13:41:48.502Z,43.30
2023-05-13T13:44:21.533Z,48.10
2023-05-13T13:46:53.916Z,44.69
2023-05-13T13:49:26.227Z,42.30
2023-05-13T13:52:01.915Z,43.87
2023-05-13T13:54:37.134Z,45.54
2023-05-13T13:57:09.462Z,45.25
2023-05-13T13:59:42.416Z,44.05
2023-05-13T14:02:17.187Z,45.13
2023-05-13T14:04:50.040Z,45.35
2023-05-13T14:07:22.418Z,46.94
2023-05-13T14:09:54.696Z,48.60
2023-05-13T14:12:27.041Z,47.71
2023-05-13T14:15:00.093Z,47.44
2023-05-13T14:17:33.512Z,47.40
2023-05-13T14:20:09.476Z,48.05
2023-05-13T14:22:41.796Z,47.19
2023-05-13T14:25:14.272Z,47.83
2023-05-13T14:27:46.574Z,48.76
2023-05-13T14:30:22.923Z,48.94
2023-05-13T14:32:55.492Z,49.31
2023-05-13T14:35:28.162Z,48.49
2023-05-13T14:38:00.508Z,49.94
2023-05-13T14:40:33.657Z,51.67
2023-05-13T14:43:08.652Z,46.62
2023-05-13T14:45:41.654Z,47.50
2023-05-13T14:48:15.705Z,48.61
2023-05-13T14:50:51.252Z,48.15
2023-05-13T14:53:23.585Z,47.77
2023-05-13T14:55:59.892Z,50.81
2023-05-13T14:58:32.984Z,48.41
2023-05-13T15:01:06.059Z,47.30
2023-05-13T15:03:38.565Z,47.48
2023-05-13T15:06:13.920Z,47.31
2023-05-13T15:08:46.328Z,50.16
2023-05-13T15:11:18.651Z,49.03
2023-05-13T15:13:50.944Z,48.83
2023-05-13T15:16:23.980Z,50.10
2023-05-13T15:18:56.718Z,50.07
2023-05-13T15:21:29.221Z,50.38
2023-05-13T15:24:02.027Z,49.70
2023-05-13T15:26:37.096Z,52.09
2023-05-13T15:29:09.459Z,52.86
2023-05-13T15:31:45.420Z,54.71
2023-05-13T15:34:20.812Z,54.28
2023-05-13T15:36:53.192Z,55.24
2023-05-13T15:39:25.512Z,54.58
2023-05-13T15:41:57.853Z,55.50
2023-05-13T15:44:33.237Z,56.93
2023-05-13T15:47:06.680Z,58.89
2023-05-13T15:49:39.128Z,57.08
2023-05-13T15:52:11.517Z,58.08
2023-05-13T15:54:43.834Z,56.91
2023-05-13T15:57:18.596Z,57.72
2023-05-13T15:59:50.994Z,57.23
2023-05-13T16:02:28.828Z,57.74
2023-05-13T16:05:01.899Z,59.29
2023-05-13T16:07:34.249Z,58.99
2023-05-13T16:10:06.914Z,60.02
2023-05-13T16:12:42.163Z,56.46
2023-05-13T16:15:14.573Z,56.28
2023-05-13T16:17:48.235Z,55.85
2023-05-13T16:20:20.999Z,55.44
2023-05-13T16:22:55.694Z,56.99
2023-05-13T16:25:30.291Z,56.80
2023-05-13T16:28:05.602Z,58.02
2023-05-13T16:30:38.798Z,57.87
2023-05-13T16:33:14.034Z,57.78
2023-05-13T16:35:46.338Z,57.57
2023-05-13T16:38:18.667Z,56.80
2023-05-13T16:40:51.049Z,57.61
2023-05-13T16:43:23.437Z,57.24
2023-05-13T16:45:55.981Z,60.52
2023-05-13T16:48:32.079Z,58.76
2023-05-13T16:51:04.554Z,60.62
2023-05-13T16:53:36.889Z,57.08
2023-05-13T16:56:12.174Z,59.14
2023-05-13T16:58:44.464Z,57.85
2023-05-13T17:01:28.283Z,59.08
2023-05-13T17:04:04.264Z,63.71
2023-05-13T17:06:36.585Z,61.50
2023-05-13T17:09:11.767Z,61.93
2023-05-13T17:11:47.220Z,61.43
2023-05-13T17:14:19.992Z,63.31
2023-05-13T17:16:52.466Z,61.63
2023-05-13T17:19:25.477Z,62.27
2023-05-13T17:22:02.955Z,63.85
2023-05-13T17:24:35.395Z,64.03
2023-05-13T17:27:07.900Z,65.51
2023-05-13T17:29:42.797Z,61.43
2023-05-13T17:32:15.300Z,62.47
2023-05-13T17:34:48.296Z,62.30
2023-05-13T17:37:20.699Z,63.48
2023-05-13T17:39:56.889Z,63.80
2023-05-13T17:42:29.624Z,64.73
2023-05-13T17:45:02.806Z,64.42
2023-05-13T17:47:35.196Z,63.38
2023-05-13T17:50:14.155Z,63.73
2023-05-13T17:52:46.483Z,65.95
2023-05-13T17:55:18.782Z,66.17
2023-05-13T17:57:54.793Z,65.90
2023-05-13T18:00:27.201Z,66.05
2023-05-13T18:02:59.577Z,67.28
2023-05-13T18:05:32.781Z,68.35
2023-05-13T18:08:06.085Z,64.35
2023-05-13T18:10:38.427Z,67.62
2023-05-13T18:13:11.100Z,66.13
2023-05-13T18:15:45.594Z,66.44
2023-05-13T18:18:17.975Z,66.48
2023-05-13T18:20:53.334Z,64.78
2023-05-13T18:23:25.629Z,64.37
2023-05-13T18:25:57.947Z,65.43
2023-05-13T18:28:30.252Z,67.07
2023-05-13T18:31:04.806Z,66.87
2023-05-13T18:33:37.129Z,67.74
2023-05-13T18:36:10.434Z,67.38
2023-05-13T18:38:47.112Z,68.68
2023-05-13T18:41:19.472Z,66.55
2023-05-13T18:43:51.778Z,67.21
2023-05-13T18:46:24.254Z,66.86
2023-05-13T18:48:56.549Z,67.49
2023-05-13T18:51:37.183Z,68.46
2023-05-13T18:54:09.512Z,68.27
2023-05-13T18:56:44.864Z,69.27
2023-05-13T18:59:17.207Z,69.96
2023-05-13T19:01:49.604Z,71.51
2023-05-13T19:04:22.117Z,70.45
2023-05-13T19:06:55.416Z,70.54
2023-05-13T19:09:30.390Z,70.84
2023-05-13T19:12:02.818Z,72.40
2023-05-13T19:14:35.200Z,72.36
2023-05-13T19:17:07.551Z,72.46
2023-05-13T19:19:40.354Z,71.93
2023-05-13T19:22:13.399Z,71.50
2023-05-13T19:24:45.847Z,70.54
2023-05-13T19:27:18.345Z,70.18
2023-05-13T19:29:50.656Z,70.69
2023-05-13T19:32:25.578Z,70.76
2023-05-13T19:34:57.928Z,71.24
2023-05-13T19:37:31.070Z,69.98
2023-05-13T19:40:04.157Z,69.33
2023-05-13T19:42:36.522Z,70.16
2023-05-13T19:45:09.961Z,70.54
2023-05-13T19:47:42.392Z,70.67
2023-05-13T19:50:15.323Z,71.62
2023-05-13T19:52:48.373Z,71.50
2023-05-13T19:55:20.731Z,71.91
2023-05-13T19:57:56.124Z,73.06
2023-05-13T20:00:28.992Z,75.48
2023-05-13T20:03:03.794Z,75.53
2023-05-13T20:05:36.240Z,75.43
2023-05-13T20:08:09.227Z,75.29
2023-05-13T20:10:41.619Z,75.47
2023-05-13T20:13:13.962Z,79.25
2023-05-13T20:15:46.314Z,79.90
2023-05-13T20:18:21.662Z,78.42
2023-05-13T20:20:54.013Z,78.02
2023-05-13T20:23:34.498Z,78.86
2023-05-13T20:26:06.881Z,80.54
2023-05-13T20:28:42.275Z,83.19
2023-05-13T20:31:14.636Z,82.61
2023-05-13T20:33:46.972Z,82.75
2023-05-13T20:36:19.237Z,83.87
2023-05-13T20:38:52.305Z,84.18
2023-05-13T20:41:24.695Z,87.04
2023-05-13T20:43:56.974Z,86.78
2023-05-13T20:46:29.278Z,87.66
2023-05-13T20:49:02.070Z,88.49
2023-05-13T20:51:34.532Z,88.81
2023-05-13T20:54:08.715Z,89.06
2023-05-13T20:56:41.232Z,88.15
2023-05-13T20:59:13.530Z,87.80
2023-05-13T21:01:46.722Z,88.86
2023-05-13T21:04:19.209Z,87.77
2023-05-13T21:06:51.716Z,89.06
2023-05-13T21:09:24.701Z,90.48
2023-05-13T21:12:15.279Z,87.92
2023-05-13T21:14:47.592Z,89.81
2023-05-13T21:17:20.853Z,88.96
2023-05-13T21:19:53.144Z,89.69
2023-05-13T21:22:25.448Z,88.44
2023-05-13T21:24:58.402Z,87.78
2023-05-13T21:27:30.686Z,91.69
2023-05-13T21:30:03.276Z,92.73
2023-05-13T21:32:36.643Z,92.14
2023-05-13T21:35:09.104Z,90.81
2023-05-13T21:37:41.345Z,91.30
2023-05-13T21:40:14.589Z,91.49
2023-05-13T21:42:46.865Z,92.18
2023-05-13T21:45:19.946Z,90.56
2023-05-13T21:47:52.245Z,91.41
2023-05-13T21:50:39.402Z,91.99
2023-05-13T21:53:11.709Z,91.83
2023-05-13T21:55:44.772Z,91.50
2023-05-13T21:58:17.016Z,92.17
2023-05-13T22:00:49.547Z,92.17
2023-05-13T22:03:22.702Z,92.64
2023-05-13T22:05:55.168Z,92.46
2023-05-13T22:08:27.530Z,92.18
2023-05-13T22:11:00.832Z,93.22
2023-05-13T22:13:33.170Z,94.24
2023-05-13T22:16:05.823Z,93.36
2023-05-13T22:18:38.652Z,93.60
2023-05-13T22:21:11.077Z,94.02
2023-05-13T22:23:43.382Z,94.15
2023-05-13T22:26:16.364Z,94.07
2023-05-13T22:28:48.768Z,96.33
2023-05-13T22:31:21.134Z,96.98
2023-05-13T22:33:53.491Z,96.40
2023-05-13T22:36:25.770Z,96.89
2023-05-13T22:38:58.063Z,98.08
2023-05-13T22:41:30.992Z,99.34
2023-05-13T22:44:03.359Z,99.44
2023-05-13T22:46:35.800Z,100.00
2023-05-13T22:49:09.597Z,100.00
2023-05-13T22:51:42.340Z,100.00
2023-05-13T22:54:14.750Z,97.67
2023-05-13T22:56:47.706Z,98.95
2023-05-13T22:59:20.125Z,100.00
2023-05-13T23:01:52.470Z,100.00
2023-05-13T23:04:24.946Z,99.69
2023-05-13T23:06:57.398Z,99.33
2023-05-13T23:09:29.781Z,100.00
2023-05-13T23:12:03.116Z,100.00
2023-05-13T23:14:35.452Z,100.00
2023-05-13T23:17:08.605Z,100.00
2023-05-13T23:19:40.976Z,99.17
2023-05-13T23:22:13.222Z,99.45
2023-05-13T23:24:45.511Z,99.95
2023-05-13T23:27:18.483Z,100.00
2023-05-13T23:29:50.805Z,100.00
2023-05-13T23:32:23.538Z,100.00
2023-05-13T23:34:55.962Z,100.00
2023-05-13T23:37:28.296Z,99.98
2023-05-13T23:40:01.621Z,100.00
2023-05-13T23:42:35.300Z,99.78
2023-05-13T23:45:08.987Z,100.00
2023-05-13T23:47:41.323Z,100.00
2023-05-13T23:50:13.667Z,100.00
2023-05-13T23:52:50.356Z,100.00
2023-05-13T23:55:22.733Z,100.00
2023-05-13T23:57:55.685Z,100.00
